Ekalaka, Montana
Current Conditions -  °F | °C
As of 11:51 AM on Thursday 27 Nov 2014 (Local Time) from KBHK Reporting Station
Overcast Overcast  
Wind Chill: 19°   Ceiling: 9500
Heat Index: 30°   Visibility: 10mi
Dew Point: 23°   Wind: 15mph
Humidity: 75%   Direction: 150°SSE
Pressure: 29.88"   Gusts: NA
Location:  45.89°N, 104.55°W
Report Text: KBHK 271851Z AUTO 15013KT 10SM FEW070 OVC095 M01/M05 A2988 RMK AO2 UPB04E16 SLP151 P0000 T10111050
Loading
Personal Weather Stations






























Interactive Weather Map New forecast layout! Learn more

10-Day Weather Forecast

Advertisements
Track Severe Weather on mobile